sensor_id;sensor_type;location;lat;lon;timestamp;pressure;altitude;pressure_sealevel;temperature;humidity
48892;BME280;50130;52.150;5.236;2022-08-01T00:00:22;101476.0;;;20.41;97.04
48892;BME280;50130;52.150;5.236;2022-08-01T00:02:09;101481.0;;;20.39;97.48
48892;BME280;50130;52.150;5.236;2022-08-01T00:03:56;101481.0;;;20.43;97.6
48892;BME280;50130;52.150;5.236;2022-08-01T00:05:45;101477.0;;;20.43;97.64
48892;BME280;50130;52.150;5.236;2022-08-01T00:09:17;101478.0;;;20.39;97.61
48892;BME280;50130;52.150;5.236;2022-08-01T00:11:04;101481.0;;;20.34;97.89
48892;BME280;50130;52.150;5.236;2022-08-01T00:12:51;101480.0;;;20.32;98.17
48892;BME280;50130;52.150;5.236;2022-08-01T00:14:37;101478.0;;;20.31;98.0
48892;BME280;50130;52.150;5.236;2022-08-01T00:16:24;101480.0;;;20.34;98.06
48892;BME280;50130;52.150;5.236;2022-08-01T00:19:57;101482.0;;;20.34;98.12
48892;BME280;50130;52.150;5.236;2022-08-01T00:21:44;101480.0;;;20.32;98.39
48892;BME280;50130;52.150;5.236;2022-08-01T00:23:31;101482.0;;;20.3;98.46
48892;BME280;50130;52.150;5.236;2022-08-01T00:25:18;101485.0;;;20.34;98.37
48892;BME280;50130;52.150;5.236;2022-08-01T00:27:04;101492.0;;;20.3;98.6
48892;BME280;50130;52.150;5.236;2022-08-01T00:28:51;101489.0;;;20.29;98.85
48892;BME280;50130;52.150;5.236;2022-08-01T00:32:23;101491.0;;;20.36;98.37
48892;BME280;50130;52.150;5.236;2022-08-01T00:34:10;101493.0;;;20.31;98.48
48892;BME280;50130;52.150;5.236;2022-08-01T00:35:57;101488.0;;;20.29;98.96
48892;BME280;50130;52.150;5.236;2022-08-01T00:37:44;101490.0;;;20.34;98.77
48892;BME280;50130;52.150;5.236;2022-08-01T00:39:32;101485.0;;;20.28;99.02
48892;BME280;50130;52.150;5.236;2022-08-01T00:41:19;101488.0;;;20.31;98.97
48892;BME280;50130;52.150;5.236;2022-08-01T00:44:51;101485.0;;;20.28;98.85
48892;BME280;50130;52.150;5.236;2022-08-01T00:46:37;101483.0;;;20.34;98.78
48892;BME280;50130;52.150;5.236;2022-08-01T00:48:23;101483.0;;;20.29;98.95
48892;BME280;50130;52.150;5.236;2022-08-01T00:50:10;101483.0;;;20.25;99.21
48892;BME280;50130;52.150;5.236;2022-08-01T00:51:58;101484.0;;;20.18;99.5
48892;BME280;50130;52.150;5.236;2022-08-01T00:55:31;101489.0;;;20.25;99.36
48892;BME280;50130;52.150;5.236;2022-08-01T00:57:18;101493.0;;;20.28;99.08
48892;BME280;50130;52.150;5.236;2022-08-01T00:59:07;101490.0;;;20.27;98.92
48892;BME280;50130;52.150;5.236;2022-08-01T01:00:53;101496.0;;;20.3;98.76
48892;BME280;50130;52.150;5.236;2022-08-01T01:02:39;101494.0;;;20.29;98.85
48892;BME280;50130;52.150;5.236;2022-08-01T01:04:26;101493.0;;;20.32;98.88
48892;BME280;50130;52.150;5.236;2022-08-01T01:08:17;101493.0;;;20.25;99.27
48892;BME280;50130;52.150;5.236;2022-08-01T01:10:11;101496.0;;;20.36;98.6
48892;BME280;50130;52.150;5.236;2022-08-01T01:12:07;101495.0;;;20.34;98.91
48892;BME280;50130;52.150;5.236;2022-08-01T01:14:02;101496.0;;;20.32;98.65
48892;BME280;50130;52.150;5.236;2022-08-01T01:15:58;101496.0;;;20.31;98.54
48892;BME280;50130;52.150;5.236;2022-08-01T01:17:48;101489.0;;;20.31;98.75
48892;BME280;50130;52.150;5.236;2022-08-01T01:19:45;101486.0;;;20.27;99.12
48892;BME280;50130;52.150;5.236;2022-08-01T01:21:44;101490.0;;;20.28;99.0
48892;BME280;50130;52.150;5.236;2022-08-01T01:23:41;101489.0;;;20.28;99.1
48892;BME280;50130;52.150;5.236;2022-08-01T01:25:44;101486.0;;;20.39;98.39
48892;BME280;50130;52.150;5.236;2022-08-01T01:27:45;101486.0;;;20.27;99.22
48892;BME280;50130;52.150;5.236;2022-08-01T01:29:40;101480.0;;;20.23;99.27
48892;BME280;50130;52.150;5.236;2022-08-01T01:31:31;101480.0;;;20.32;98.97
48892;BME280;50130;52.150;5.236;2022-08-01T01:35:14;101477.0;;;20.31;98.99
48892;BME280;50130;52.150;5.236;2022-08-01T01:37:11;101478.0;;;20.23;99.53
48892;BME280;50130;52.150;5.236;2022-08-01T01:39:05;101483.0;;;20.27;99.34
48892;BME280;50130;52.150;5.236;2022-08-01T01:40:53;101486.0;;;20.25;99.58
48892;BME280;50130;52.150;5.236;2022-08-01T01:42:43;101489.0;;;20.36;99.43
48892;BME280;50130;52.150;5.236;2022-08-01T01:44:31;101487.0;;;20.37;98.7
48892;BME280;50130;52.150;5.236;2022-08-01T01:46:22;101485.0;;;20.34;98.96
48892;BME280;50130;52.150;5.236;2022-08-01T01:50:03;101491.0;;;20.28;99.12
48892;BME280;50130;52.150;5.236;2022-08-01T01:51:51;101491.0;;;20.36;98.9
48892;BME280;50130;52.150;5.236;2022-08-01T01:53:39;101492.0;;;20.34;99.07
48892;BME280;50130;52.150;5.236;2022-08-01T01:55:27;101492.0;;;20.41;98.8
48892;BME280;50130;52.150;5.236;2022-08-01T01:57:18;101492.0;;;20.36;99.25
48892;BME280;50130;52.150;5.236;2022-08-01T01:59:04;101488.0;;;20.36;99.28
48892;BME280;50130;52.150;5.236;2022-08-01T02:00:52;101495.0;;;20.34;99.39
48892;BME280;50130;52.150;5.236;2022-08-01T02:04:30;101493.0;;;20.29;99.28
48892;BME280;50130;52.150;5.236;2022-08-01T02:06:18;101494.0;;;20.28;99.34
48892;BME280;50130;52.150;5.236;2022-08-01T02:08:06;101487.0;;;20.25;99.77
48892;BME280;50130;52.150;5.236;2022-08-01T02:09:54;101491.0;;;20.21;99.47
48892;BME280;50130;52.150;5.236;2022-08-01T02:11:41;101496.0;;;20.25;99.43
48892;BME280;50130;52.150;5.236;2022-08-01T02:13:30;101497.0;;;20.27;99.2
48892;BME280;50130;52.150;5.236;2022-08-01T02:17:06;101498.0;;;20.25;99.21
48892;BME280;50130;52.150;5.236;2022-08-01T02:18:57;101495.0;;;20.43;98.29
48892;BME280;50130;52.150;5.236;2022-08-01T02:20:45;101494.0;;;20.25;99.19
48892;BME280;50130;52.150;5.236;2022-08-01T02:22:41;101492.0;;;20.25;99.0
48892;BME280;50130;52.150;5.236;2022-08-01T02:24:32;101493.0;;;20.25;99.17
48892;BME280;50130;52.150;5.236;2022-08-01T02:26:24;101501.0;;;20.27;98.99
48892;BME280;50130;52.150;5.236;2022-08-01T02:28:15;101500.0;;;20.27;98.98
48892;BME280;50130;52.150;5.236;2022-08-01T02:30:07;101495.0;;;20.22;98.97
48892;BME280;50130;52.150;5.236;2022-08-01T02:33:45;101494.0;;;20.18;99.29
48892;BME280;50130;52.150;5.236;2022-08-01T02:35:37;101491.0;;;20.16;99.58
48892;BME280;50130;52.150;5.236;2022-08-01T02:37:28;101498.0;;;20.2;99.39
48892;BME280;50130;52.150;5.236;2022-08-01T02:39:21;101500.0;;;20.25;99.3
48892;BME280;50130;52.150;5.236;2022-08-01T02:41:11;101507.0;;;20.37;98.56
48892;BME280;50130;52.150;5.236;2022-08-01T02:43:01;101503.0;;;20.23;99.1
48892;BME280;50130;52.150;5.236;2022-08-01T02:44:49;101503.0;;;20.2;99.34
48892;BME280;50130;52.150;5.236;2022-08-01T02:48:30;101505.0;;;20.16;99.65
48892;BME280;50130;52.150;5.236;2022-08-01T02:50:20;101501.0;;;20.18;99.72
48892;BME280;50130;52.150;5.236;2022-08-01T02:52:12;101499.0;;;20.18;99.78
48892;BME280;50130;52.150;5.236;2022-08-01T02:54:02;101497.0;;;20.16;99.59
48892;BME280;50130;52.150;5.236;2022-08-01T02:55:52;101503.0;;;20.12;99.82
48892;BME280;50130;52.150;5.236;2022-08-01T02:57:40;101501.0;;;20.12;100.0
48892;BME280;50130;52.150;5.236;2022-08-01T02:59:31;101496.0;;;20.11;100.0
48892;BME280;50130;52.150;5.236;2022-08-01T03:03:09;101491.0;;;20.18;100.0
48892;BME280;50130;52.150;5.236;2022-08-01T03:04:58;101487.0;;;20.16;99.85
48892;BME280;50130;52.150;5.236;2022-08-01T03:06:46;101482.0;;;20.18;99.85
48892;BME280;50130;52.150;5.236;2022-08-01T03:08:34;101480.0;;;20.13;99.86
48892;BME280;50130;52.150;5.236;2022-08-01T03:10:24;101484.0;;;20.16;99.85
48892;BME280;50130;52.150;5.236;2022-08-01T03:12:17;101488.0;;;20.27;99.41
48892;BME280;50130;52.150;5.236;2022-08-01T03:14:12;101490.0;;;20.18;99.47
48892;BME280;50130;52.150;5.236;2022-08-01T03:17:52;101501.0;;;20.11;100.0
48892;BME280;50130;52.150;5.236;2022-08-01T03:19:41;101503.0;;;20.05;100.0
48892;BME280;50130;52.150;5.236;2022-08-01T03:21:31;101505.0;;;20.12;99.94
48892;BME280;50130;52.150;5.236;2022-08-01T03:23:20;101501.0;;;20.29;98.87
48892;BME280;50130;52.150;5.236;2022-08-01T03:25:09;101501.0;;;20.18;99.37
48892;BME280;50130;52.150;5.236;2022-08-01T03:26:57;101501.0;;;20.06;100.0
48892;BME280;50130;52.150;5.236;2022-08-01T03:28:46;101501.0;;;20.14;99.85
48892;BME280;50130;52.150;5.236;2022-08-01T03:32:23;101505.0;;;20.11;99.92
48892;BME280;50130;52.150;5.236;2022-08-01T03:34:11;101506.0;;;20.12;99.88
48892;BME280;50130;52.150;5.236;2022-08-01T03:35:59;101509.0;;;20.16;99.39
48892;BME280;50130;52.150;5.236;2022-08-01T03:37:50;101510.0;;;20.13;99.44
48892;BME280;50130;52.150;5.236;2022-08-01T03:39:44;101510.0;;;20.07;99.81
48892;BME280;50130;52.150;5.236;2022-08-01T03:41:37;101513.0;;;20.05;99.72
48892;BME280;50130;52.150;5.236;2022-08-01T03:43:31;101515.0;;;19.96;100.0
48892;BME280;50130;52.150;5.236;2022-08-01T03:45:26;101516.0;;;19.95;99.76
48892;BME280;50130;52.150;5.236;2022-08-01T03:49:08;101514.0;;;19.95;99.84
48892;BME280;50130;52.150;5.236;2022-08-01T03:51:08;101515.0;;;19.98;99.41
48892;BME280;50130;52.150;5.236;2022-08-01T03:52:58;101516.0;;;19.88;99.86
48892;BME280;50130;52.150;5.236;2022-08-01T03:54:49;101513.0;;;19.93;99.9
48892;BME280;50130;52.150;5.236;2022-08-01T03:56:39;101512.0;;;19.84;99.94
48892;BME280;50130;52.150;5.236;2022-08-01T03:58:28;101511.0;;;19.91;99.94
48892;BME280;50130;52.150;5.236;2022-08-01T04:00:18;101517.0;;;19.93;99.68
48892;BME280;50130;52.150;5.236;2022-08-01T04:02:06;101513.0;;;19.86;100.0
48892;BME280;50130;52.150;5.236;2022-08-01T04:05:40;101513.0;;;19.93;99.61
48892;BME280;50130;52.150;5.236;2022-08-01T04:07:28;101514.0;;;19.98;99.51
48892;BME280;50130;52.150;5.236;2022-08-01T04:09:16;101512.0;;;19.93;99.71
48892;BME280;50130;52.150;5.236;2022-08-01T04:11:03;101514.0;;;19.97;99.43
48892;BME280;50130;52.150;5.236;2022-08-01T04:12:51;101515.0;;;19.96;99.66
48892;BME280;50130;52.150;5.236;2022-08-01T04:14:38;101514.0;;;19.89;100.0
48892;BME280;50130;52.150;5.236;2022-08-01T04:18:11;101516.0;;;19.95;99.68
48892;BME280;50130;52.150;5.236;2022-08-01T04:19:57;101522.0;;;19.98;99.45
48892;BME280;50130;52.150;5.236;2022-08-01T04:21:44;101528.0;;;19.98;99.07
48892;BME280;50130;52.150;5.236;2022-08-01T04:23:34;101530.0;;;19.93;99.44
48892;BME280;50130;52.150;5.236;2022-08-01T04:25:24;101533.0;;;20.0;99.48
48892;BME280;50130;52.150;5.236;2022-08-01T04:27:15;101532.0;;;20.03;98.84
48892;BME280;50130;52.150;5.236;2022-08-01T04:30:59;101536.0;;;19.93;99.4
48892;BME280;50130;52.150;5.236;2022-08-01T04:32:47;101535.0;;;19.88;99.71
48892;BME280;50130;52.150;5.236;2022-08-01T04:34:38;101532.0;;;19.87;100.0
48892;BME280;50130;52.150;5.236;2022-08-01T04:36:26;101533.0;;;19.93;100.0
48892;BME280;50130;52.150;5.236;2022-08-01T04:38:19;101536.0;;;19.97;99.77
48892;BME280;50130;52.150;5.236;2022-08-01T04:40:10;101539.0;;;20.02;99.88
48892;BME280;50130;52.150;5.236;2022-08-01T04:41:59;101538.0;;;20.0;99.78
48892;BME280;50130;52.150;5.236;2022-08-01T04:45:34;101541.0;;;19.81;100.0
48892;BME280;50130;52.150;5.236;2022-08-01T04:47:21;101539.0;;;19.93;99.91
48892;BME280;50130;52.150;5.236;2022-08-01T04:49:10;101546.0;;;20.06;99.5
48892;BME280;50130;52.150;5.236;2022-08-01T04:50:56;101550.0;;;20.11;99.04
48892;BME280;50130;52.150;5.236;2022-08-01T04:52:43;101555.0;;;20.16;99.1
48892;BME280;50130;52.150;5.236;2022-08-01T04:54:30;101556.0;;;20.16;98.8
48892;BME280;50130;52.150;5.236;2022-08-01T04:58:07;101557.0;;;20.04;98.64
48892;BME280;50130;52.150;5.236;2022-08-01T04:59:56;101563.0;;;20.04;99.46
48892;BME280;50130;52.150;5.236;2022-08-01T05:01:48;101559.0;;;20.06;99.32
48892;BME280;50130;52.150;5.236;2022-08-01T05:03:34;101565.0;;;20.02;99.53
48892;BME280;50130;52.150;5.236;2022-08-01T05:05:22;101563.0;;;19.96;100.0
48892;BME280;50130;52.150;5.236;2022-08-01T05:07:09;101560.0;;;20.05;99.41
48892;BME280;50130;52.150;5.236;2022-08-01T05:10:42;101569.0;;;19.98;99.3
48892;BME280;50130;52.150;5.236;2022-08-01T05:12:29;101566.0;;;19.91;99.57
48892;BME280;50130;52.150;5.236;2022-08-01T05:14:15;101568.0;;;19.89;99.64
48892;BME280;50130;52.150;5.236;2022-08-01T05:16:03;101564.0;;;19.89;98.93
48892;BME280;50130;52.150;5.236;2022-08-01T05:17:50;101567.0;;;19.95;98.47
48892;BME280;50130;52.150;5.236;2022-08-01T05:19:38;101568.0;;;19.82;99.29
48892;BME280;50130;52.150;5.236;2022-08-01T05:23:12;101568.0;;;19.86;99.39
48892;BME280;50130;52.150;5.236;2022-08-01T05:24:59;101571.0;;;19.8;99.14
48892;BME280;50130;52.150;5.236;2022-08-01T05:26:45;101575.0;;;19.96;98.72
48892;BME280;50130;52.150;5.236;2022-08-01T05:28:31;101582.0;;;20.05;97.69
48892;BME280;50130;52.150;5.236;2022-08-01T05:30:18;101580.0;;;20.07;97.26
48892;BME280;50130;52.150;5.236;2022-08-01T05:32:04;101580.0;;;19.93;97.57
48892;BME280;50130;52.150;5.236;2022-08-01T05:35:37;101577.0;;;19.87;98.09
48892;BME280;50130;52.150;5.236;2022-08-01T05:37:24;101578.0;;;19.73;98.96
48892;BME280;50130;52.150;5.236;2022-08-01T05:39:10;101580.0;;;19.75;99.21
48892;BME280;50130;52.150;5.236;2022-08-01T05:40:57;101580.0;;;19.7;98.78
48892;BME280;50130;52.150;5.236;2022-08-01T05:42:43;101581.0;;;19.63;98.95
48892;BME280;50130;52.150;5.236;2022-08-01T05:46:17;101580.0;;;19.77;98.69
48892;BME280;50130;52.150;5.236;2022-08-01T05:48:04;101580.0;;;19.82;98.61
48892;BME280;50130;52.150;5.236;2022-08-01T05:49:50;101584.0;;;19.7;99.27
48892;BME280;50130;52.150;5.236;2022-08-01T05:51:36;101586.0;;;19.86;98.74
48892;BME280;50130;52.150;5.236;2022-08-01T05:53:22;101589.0;;;19.84;98.81
48892;BME280;50130;52.150;5.236;2022-08-01T05:55:09;101589.0;;;19.87;98.16
48892;BME280;50130;52.150;5.236;2022-08-01T05:58:46;101593.0;;;19.72;99.3
48892;BME280;50130;52.150;5.236;2022-08-01T06:00:33;101593.0;;;19.77;98.88
48892;BME280;50130;52.150;5.236;2022-08-01T06:02:20;101593.0;;;19.73;99.8
48892;BME280;50130;52.150;5.236;2022-08-01T06:04:06;101595.0;;;19.73;98.97
48892;BME280;50130;52.150;5.236;2022-08-01T06:05:52;101594.0;;;19.63;99.45
48892;BME280;50130;52.150;5.236;2022-08-01T06:07:40;101599.0;;;19.75;99.34
48892;BME280;50130;52.150;5.236;2022-08-01T06:11:12;101599.0;;;19.59;100.0
48892;BME280;50130;52.150;5.236;2022-08-01T06:14:49;101600.0;;;19.64;100.0
48892;BME280;50130;52.150;5.236;2022-08-01T06:16:35;101600.0;;;19.63;100.0
48892;BME280;50130;52.150;5.236;2022-08-01T06:18:21;101601.0;;;19.61;100.0
48892;BME280;50130;52.150;5.236;2022-08-01T06:20:10;101605.0;;;19.54;100.0
48892;BME280;50130;52.150;5.236;2022-08-01T06:23:42;101600.0;;;19.52;100.0
48892;BME280;50130;52.150;5.236;2022-08-01T06:25:29;101599.0;;;19.53;100.0
48892;BME280;50130;52.150;5.236;2022-08-01T06:27:16;101602.0;;;19.5;100.0
48892;BME280;50130;52.150;5.236;2022-08-01T06:29:02;101599.0;;;19.59;100.0
48892;BME280;50130;52.150;5.236;2022-08-01T06:30:49;101600.0;;;19.57;100.0
48892;BME280;50130;52.150;5.236;2022-08-01T06:34:23;101602.0;;;19.63;100.0
48892;BME280;50130;52.150;5.236;2022-08-01T06:36:09;101601.0;;;19.61;100.0
48892;BME280;50130;52.150;5.236;2022-08-01T06:37:56;101603.0;;;19.66;100.0
48892;BME280;50130;52.150;5.236;2022-08-01T06:39:43;101607.0;;;19.77;100.0
48892;BME280;50130;52.150;5.236;2022-08-01T06:41:29;101603.0;;;19.84;100.0
48892;BME280;50130;52.150;5.236;2022-08-01T06:43:15;101606.0;;;19.91;99.98
48892;BME280;50130;52.150;5.236;2022-08-01T06:46:49;101611.0;;;19.84;99.93
48892;BME280;50130;52.150;5.236;2022-08-01T06:48:39;101612.0;;;19.86;99.93
48892;BME280;50130;52.150;5.236;2022-08-01T06:50:25;101615.0;;;19.82;100.0
48892;BME280;50130;52.150;5.236;2022-08-01T06:52:12;101617.0;;;19.95;99.63
48892;BME280;50130;52.150;5.236;2022-08-01T06:53:58;101619.0;;;19.98;99.8
48892;BME280;50130;52.150;5.236;2022-08-01T06:55:44;101621.0;;;20.16;98.97
48892;BME280;50130;52.150;5.236;2022-08-01T06:59:17;101620.0;;;20.11;98.77
48892;BME280;50130;52.150;5.236;2022-08-01T07:01:06;101623.0;;;20.05;98.35
48892;BME280;50130;52.150;5.236;2022-08-01T07:02:54;101626.0;;;20.04;98.45
48892;BME280;50130;52.150;5.236;2022-08-01T07:04:42;101628.0;;;20.16;98.07
48892;BME280;50130;52.150;5.236;2022-08-01T07:08:15;101627.0;;;20.23;97.78
48892;BME280;50130;52.150;5.236;2022-08-01T07:11:52;101632.0;;;20.16;98.13
48892;BME280;50130;52.150;5.236;2022-08-01T07:13:39;101636.0;;;20.07;98.64
48892;BME280;50130;52.150;5.236;2022-08-01T07:15:26;101631.0;;;20.05;98.12
48892;BME280;50130;52.150;5.236;2022-08-01T07:17:13;101637.0;;;19.95;97.17
48892;BME280;50130;52.150;5.236;2022-08-01T07:19:00;101639.0;;;19.89;97.65
48892;BME280;50130;52.150;5.236;2022-08-01T07:22:32;101640.0;;;19.84;97.61
48892;BME280;50130;52.150;5.236;2022-08-01T07:24:19;101642.0;;;19.82;98.28
48892;BME280;50130;52.150;5.236;2022-08-01T07:26:06;101643.0;;;19.77;97.24
48892;BME280;50130;52.150;5.236;2022-08-01T07:27:53;101642.0;;;19.82;98.24
48892;BME280;50130;52.150;5.236;2022-08-01T07:29:39;101648.0;;;19.91;98.51
48892;BME280;50130;52.150;5.236;2022-08-01T07:31:25;101653.0;;;19.93;98.31
48892;BME280;50130;52.150;5.236;2022-08-01T07:34:58;101656.0;;;19.95;98.21
48892;BME280;50130;52.150;5.236;2022-08-01T07:36:45;101657.0;;;20.0;97.91
48892;BME280;50130;52.150;5.236;2022-08-01T07:38:32;101655.0;;;20.0;97.54
48892;BME280;50130;52.150;5.236;2022-08-01T07:40:19;101663.0;;;20.05;97.51
48892;BME280;50130;52.150;5.236;2022-08-01T07:42:06;101663.0;;;20.2;97.45
48892;BME280;50130;52.150;5.236;2022-08-01T07:43:53;101667.0;;;20.16;97.29
48892;BME280;50130;52.150;5.236;2022-08-01T07:47:27;101673.0;;;20.21;96.67
48892;BME280;50130;52.150;5.236;2022-08-01T07:49:13;101669.0;;;20.13;97.63
48892;BME280;50130;52.150;5.236;2022-08-01T07:51:00;101668.0;;;20.2;96.13
48892;BME280;50130;52.150;5.236;2022-08-01T07:52:46;101667.0;;;20.22;97.68
48892;BME280;50130;52.150;5.236;2022-08-01T07:54:33;101673.0;;;20.36;97.59
48892;BME280;50130;52.150;5.236;2022-08-01T07:58:06;101678.0;;;20.47;98.04
48892;BME280;50130;52.150;5.236;2022-08-01T07:59:53;101676.0;;;20.43;96.82
48892;BME280;50130;52.150;5.236;2022-08-01T08:03:28;101681.0;;;20.48;95.79
48892;BME280;50130;52.150;5.236;2022-08-01T08:05:14;101683.0;;;20.64;96.36
48892;BME280;50130;52.150;5.236;2022-08-01T08:07:01;101687.0;;;20.69;96.89
48892;BME280;50130;52.150;5.236;2022-08-01T08:10:34;101688.0;;;20.75;96.15
48892;BME280;50130;52.150;5.236;2022-08-01T08:12:20;101685.0;;;20.78;95.29
48892;BME280;50130;52.150;5.236;2022-08-01T08:14:07;101685.0;;;20.72;92.78
48892;BME280;50130;52.150;5.236;2022-08-01T08:15:54;101681.0;;;20.55;92.19
48892;BME280;50130;52.150;5.236;2022-08-01T08:17:40;101688.0;;;20.71;93.54
48892;BME280;50130;52.150;5.236;2022-08-01T08:19:26;101693.0;;;20.93;93.48
48892;BME280;50130;52.150;5.236;2022-08-01T08:22:58;101694.0;;;20.9;93.1
48892;BME280;50130;52.150;5.236;2022-08-01T08:24:45;101700.0;;;20.96;94.28
48892;BME280;50130;52.150;5.236;2022-08-01T08:26:32;101699.0;;;20.79;90.51
48892;BME280;50130;52.150;5.236;2022-08-01T08:28:19;101702.0;;;20.84;90.42
48892;BME280;50130;52.150;5.236;2022-08-01T08:30:08;101702.0;;;20.87;91.43
48892;BME280;50130;52.150;5.236;2022-08-01T08:33:42;101703.0;;;20.92;91.62
48892;BME280;50130;52.150;5.236;2022-08-01T08:35:28;101699.0;;;20.92;92.55
48892;BME280;50130;52.150;5.236;2022-08-01T08:37:17;101700.0;;;20.8;89.73
48892;BME280;50130;52.150;5.236;2022-08-01T08:39:04;101699.0;;;20.75;88.48
48892;BME280;50130;52.150;5.236;2022-08-01T08:40:52;101702.0;;;20.78;89.52
48892;BME280;50130;52.150;5.236;2022-08-01T08:42:39;101708.0;;;20.91;91.23
48892;BME280;50130;52.150;5.236;2022-08-01T08:46:13;101712.0;;;21.11;90.45
48892;BME280;50130;52.150;5.236;2022-08-01T08:48:00;101716.0;;;21.07;83.87
48892;BME280;50130;52.150;5.236;2022-08-01T08:49:49;101713.0;;;21.06;85.22
48892;BME280;50130;52.150;5.236;2022-08-01T08:51:38;101713.0;;;21.11;85.54
48892;BME280;50130;52.150;5.236;2022-08-01T08:53:26;101716.0;;;21.1;86.57
48892;BME280;50130;52.150;5.236;2022-08-01T08:55:16;101722.0;;;21.11;82.81
48892;BME280;50130;52.150;5.236;2022-08-01T09:00:39;101723.0;;;21.07;84.71
48892;BME280;50130;52.150;5.236;2022-08-01T09:02:25;101722.0;;;21.04;86.61
48892;BME280;50130;52.150;5.236;2022-08-01T09:04:12;101720.0;;;20.96;81.47
48892;BME280;50130;52.150;5.236;2022-08-01T09:05:59;101723.0;;;21.0;85.67
48892;BME280;50130;52.150;5.236;2022-08-01T09:07:46;101724.0;;;21.19;85.87
48892;BME280;50130;52.150;5.236;2022-08-01T09:11:19;101726.0;;;21.32;82.23
48892;BME280;50130;52.150;5.236;2022-08-01T09:13:09;101730.0;;;21.36;86.11
48892;BME280;50130;52.150;5.236;2022-08-01T09:14:57;101732.0;;;21.48;87.07
48892;BME280;50130;52.150;5.236;2022-08-01T09:16:44;101736.0;;;21.5;82.94
48892;BME280;50130;52.150;5.236;2022-08-01T09:18:33;101738.0;;;21.59;86.08
48892;BME280;50130;52.150;5.236;2022-08-01T09:20:23;101734.0;;;21.76;85.74
48892;BME280;50130;52.150;5.236;2022-08-01T09:22:12;101741.0;;;21.86;79.75
48892;BME280;50130;52.150;5.236;2022-08-01T09:25:51;101743.0;;;21.99;81.25
48892;BME280;50130;52.150;5.236;2022-08-01T09:27:39;101742.0;;;21.91;77.36
48892;BME280;50130;52.150;5.236;2022-08-01T09:29:28;101744.0;;;21.99;80.83
48892;BME280;50130;52.150;5.236;2022-08-01T09:31:18;101749.0;;;22.15;76.91
48892;BME280;50130;52.150;5.236;2022-08-01T09:33:05;101747.0;;;22.07;78.31
48892;BME280;50130;52.150;5.236;2022-08-01T09:34:51;101748.0;;;22.07;78.67
48892;BME280;50130;52.150;5.236;2022-08-01T09:38:41;101752.0;;;22.15;80.05
48892;BME280;50130;52.150;5.236;2022-08-01T09:40:44;101750.0;;;22.36;81.16
48892;BME280;50130;52.150;5.236;2022-08-01T09:42:30;101756.0;;;22.2;77.81
48892;BME280;50130;52.150;5.236;2022-08-01T09:44:18;101759.0;;;22.26;77.61
48892;BME280;50130;52.150;5.236;2022-08-01T09:46:08;101763.0;;;22.01;77.14
48892;BME280;50130;52.150;5.236;2022-08-01T09:47:56;101765.0;;;22.29;76.61
48892;BME280;50130;52.150;5.236;2022-08-01T09:49:43;101762.0;;;22.38;75.94
48892;BME280;50130;52.150;5.236;2022-08-01T09:51:31;101766.0;;;22.26;75.55
48892;BME280;50130;52.150;5.236;2022-08-01T09:55:08;101765.0;;;22.37;77.77
48892;BME280;50130;52.150;5.236;2022-08-01T09:57:07;101776.0;;;22.43;71.49
48892;BME280;50130;52.150;5.236;2022-08-01T09:58:56;101775.0;;;22.33;70.09
48892;BME280;50130;52.150;5.236;2022-08-01T10:00:43;101775.0;;;22.25;70.69
48892;BME280;50130;52.150;5.236;2022-08-01T10:02:45;101770.0;;;22.36;74.52
48892;BME280;50130;52.150;5.236;2022-08-01T10:04:33;101772.0;;;22.5;73.02
48892;BME280;50130;52.150;5.236;2022-08-01T10:06:20;101767.0;;;22.58;71.42
48892;BME280;50130;52.150;5.236;2022-08-01T10:09:54;101770.0;;;22.67;70.44
48892;BME280;50130;52.150;5.236;2022-08-01T10:11:41;101769.0;;;22.76;69.03
48892;BME280;50130;52.150;5.236;2022-08-01T10:13:30;101774.0;;;22.73;71.2
48892;BME280;50130;52.150;5.236;2022-08-01T10:15:17;101776.0;;;22.73;69.83
48892;BME280;50130;52.150;5.236;2022-08-01T10:17:06;101774.0;;;22.7;71.94
48892;BME280;50130;52.150;5.236;2022-08-01T10:18:54;101773.0;;;22.62;75.05
48892;BME280;50130;52.150;5.236;2022-08-01T10:20:43;101775.0;;;22.59;72.27
48892;BME280;50130;52.150;5.236;2022-08-01T10:24:19;101780.0;;;22.61;70.11
48892;BME280;50130;52.150;5.236;2022-08-01T10:26:07;101776.0;;;22.6;69.3
48892;BME280;50130;52.150;5.236;2022-08-01T10:27:56;101777.0;;;22.66;70.41
48892;BME280;50130;52.150;5.236;2022-08-01T10:29:47;101776.0;;;22.65;75.81
48892;BME280;50130;52.150;5.236;2022-08-01T10:31:40;101776.0;;;22.71;69.53
48892;BME280;50130;52.150;5.236;2022-08-01T10:33:26;101784.0;;;22.88;74.22
48892;BME280;50130;52.150;5.236;2022-08-01T10:37:05;101777.0;;;22.92;71.23
48892;BME280;50130;52.150;5.236;2022-08-01T10:38:54;101774.0;;;22.93;72.16
48892;BME280;50130;52.150;5.236;2022-08-01T10:40:41;101781.0;;;22.93;70.42
48892;BME280;50130;52.150;5.236;2022-08-01T10:42:29;101781.0;;;23.04;69.22
48892;BME280;50130;52.150;5.236;2022-08-01T10:44:15;101780.0;;;22.98;67.24
48892;BME280;50130;52.150;5.236;2022-08-01T10:46:03;101780.0;;;22.96;68.34
48892;BME280;50130;52.150;5.236;2022-08-01T10:49:49;101780.0;;;23.04;68.87
48892;BME280;50130;52.150;5.236;2022-08-01T10:51:40;101780.0;;;22.9;66.12
48892;BME280;50130;52.150;5.236;2022-08-01T10:53:27;101786.0;;;23.01;67.83
48892;BME280;50130;52.150;5.236;2022-08-01T10:55:14;101787.0;;;22.94;66.47
48892;BME280;50130;52.150;5.236;2022-08-01T10:57:00;101781.0;;;22.82;67.14
48892;BME280;50130;52.150;5.236;2022-08-01T10:58:47;101786.0;;;22.97;65.78
48892;BME280;50130;52.150;5.236;2022-08-01T11:00:34;101783.0;;;22.99;66.94
48892;BME280;50130;52.150;5.236;2022-08-01T11:04:14;101785.0;;;23.1;70.66
48892;BME280;50130;52.150;5.236;2022-08-01T11:06:03;101784.0;;;23.11;70.42
48892;BME280;50130;52.150;5.236;2022-08-01T11:07:52;101786.0;;;22.86;68.73
48892;BME280;50130;52.150;5.236;2022-08-01T11:09:41;101789.0;;;22.96;71.52
48892;BME280;50130;52.150;5.236;2022-08-01T11:11:29;101788.0;;;22.87;66.66
48892;BME280;50130;52.150;5.236;2022-08-01T11:14:00;101795.0;;;22.85;65.19